Time;durP1;ratioP1;P1;durP2;ratioP2;P2;SDS_P1;SDS_P2;PMS_P1;PMS_P2;Temp;Humidity;BMP_temperature;BMP_pressure;BME280_temperature;BME280_humidity;BME280_pressure;Samples;Min_cycle;Max_cycle;Signal;HPM_P1;HPM_P2
2024/05/08 00:00:08;;;;;;;;;;;20.80;57.60;;;;;;5495149;26;1076;-89
2024/05/08 00:02:33;;;;;;;;;;;20.80;57.60;;;;;;5426686;26;1506;-89
2024/05/08 00:04:59;;;;;;;;;;;20.80;57.60;;;;;;5458529;26;1478;-89
2024/05/08 00:07:24;;;;;;;;;;;20.80;57.50;;;;;;5458402;26;1671;-89
2024/05/08 00:09:49;;;;;;;;;;;20.80;57.50;;;;;;5457399;26;1859;-89
2024/05/08 00:12:15;;;;;;;;;;;20.80;57.40;;;;;;5426922;26;1197;-89
2024/05/08 00:14:40;;;;;;;;;;;20.80;57.40;;;;;;5426990;26;1237;-89
2024/05/08 00:17:05;;;;;;;;;;;20.80;57.50;;;;;;5458033;26;1690;-89
2024/05/08 00:19:32;;;;;;;;;;;20.80;57.50;;;;;;5458548;26;1188;-89
2024/05/08 00:22:00;;;;;;;;;;;20.80;57.40;;;;;;5458337;26;1001;-89
2024/05/08 00:24:25;;;;;;;;;;;20.80;57.40;;;;;;5426474;26;1691;-89
2024/05/08 00:26:50;;;;;;;;;;;20.70;57.30;;;;;;5457931;26;1591;-89
2024/05/08 00:29:16;;;;;;;;;;;20.80;57.40;;;;;;5457854;26;1817;-89
2024/05/08 00:31:41;;;;;;;;;;;20.80;57.20;;;;;;5458340;26;1136;-89
2024/05/08 00:34:07;;;;;;;;;;;20.80;57.20;;;;;;5426702;26;1170;-89
2024/05/08 00:36:32;;;;;;;;;;;20.80;57.30;;;;;;5458276;26;848;-89
2024/05/08 00:38:58;;;;;;;;;;;20.80;57.10;;;;;;5457843;26;1535;-89
2024/05/08 00:41:23;;;;;;;;;;;20.80;57.20;;;;;;5458325;26;965;-89
2024/05/08 00:43:48;;;;;;;;;;;20.80;57.80;;;;;;5457902;26;1468;-89
2024/05/08 00:46:14;;;;;;;;;;;20.70;57.10;;;;;;5458128;26;969;-89
2024/05/08 00:48:39;;;;;;;;;;;20.80;57.20;;;;;;5426057;26;1821;-89
2024/05/08 00:51:04;;;;;;;;;;;20.80;57.10;;;;;;5426349;26;1517;-89
2024/05/08 00:53:30;;;;;;;;;;;20.80;57.10;;;;;;5458215;26;1026;-89
2024/05/08 00:55:55;;;;;;;;;;;20.80;57.10;;;;;;5426621;26;1214;-90
2024/05/08 00:58:21;;;;;;;;;;;20.80;57.00;;;;;;5457957;26;1639;-89
2024/05/08 01:00:46;;;;;;;;;;;20.80;57.10;;;;;;5435500;26;1514;-89
2024/05/08 01:03:11;;;;;;;;;;;20.70;57.00;;;;;;5462322;26;1192;-89
2024/05/08 01:05:37;;;;;;;;;;;20.70;57.00;;;;;;5494349;26;1029;-89
2024/05/08 01:08:02;;;;;;;;;;;20.70;57.00;;;;;;5462365;26;1290;-89
2024/05/08 01:10:27;;;;;;;;;;;20.70;56.90;;;;;;5493754;26;1798;-89
2024/05/08 01:12:53;;;;;;;;;;;20.70;56.90;;;;;;5493785;26;1582;-89
2024/05/08 01:15:18;;;;;;;;;;;20.70;56.80;;;;;;5494055;26;945;-89
2024/05/08 01:17:44;;;;;;;;;;;20.70;56.80;;;;;;5494026;26;1033;-89
2024/05/08 01:20:09;;;;;;;;;;;20.70;56.90;;;;;;5493863;26;1550;-89
2024/05/08 01:22:35;;;;;;;;;;;20.70;56.80;;;;;;5492381;26;1567;-89
2024/05/08 01:25:01;;;;;;;;;;;20.70;56.90;;;;;;5461980;26;1564;-89
2024/05/08 01:27:26;;;;;;;;;;;20.70;56.80;;;;;;5461683;26;1458;-90
2024/05/08 01:29:52;;;;;;;;;;;20.70;56.80;;;;;;5494108;26;1851;-89
2024/05/08 01:32:17;;;;;;;;;;;20.70;56.90;;;;;;5493985;26;1575;-89
2024/05/08 01:34:42;;;;;;;;;;;20.70;56.70;;;;;;5493954;26;1572;-89
2024/05/08 01:37:08;;;;;;;;;;;20.70;56.70;;;;;;5493655;26;1341;-89
2024/05/08 01:39:33;;;;;;;;;;;20.70;56.70;;;;;;5461208;26;1569;-89
2024/05/08 01:41:58;;;;;;;;;;;20.70;56.70;;;;;;5493309;26;1510;-89
2024/05/08 01:44:24;;;;;;;;;;;20.70;56.60;;;;;;5461332;26;1660;-88
2024/05/08 01:46:49;;;;;;;;;;;20.70;56.60;;;;;;5461259;26;1288;-89
2024/05/08 01:49:14;;;;;;;;;;;20.70;56.60;;;;;;5461541;26;1818;-89
2024/05/08 01:51:40;;;;;;;;;;;20.70;56.60;;;;;;5486989;26;1452;-89
2024/05/08 01:54:05;;;;;;;;;;;20.70;56.60;;;;;;5460575;26;1502;-89
2024/05/08 01:56:31;;;;;;;;;;;20.70;56.60;;;;;;5460953;26;1460;-89
2024/05/08 01:58:56;;;;;;;;;;;20.70;56.60;;;;;;5461372;26;1225;-89
2024/05/08 02:01:21;;;;;;;;;;;20.70;56.40;;;;;;5493232;26;1072;-89
2024/05/08 02:03:47;;;;;;;;;;;20.70;56.50;;;;;;5493409;26;1694;-89
2024/05/08 02:06:12;;;;;;;;;;;20.70;56.50;;;;;;5493138;26;841;-89
2024/05/08 02:08:37;;;;;;;;;;;20.70;56.50;;;;;;5493296;26;1826;-88
2024/05/08 02:11:03;;;;;;;;;;;20.70;57.10;;;;;;5493532;26;1539;-89
2024/05/08 02:13:28;;;;;;;;;;;20.70;56.40;;;;;;5492816;26;1604;-89
2024/05/08 02:15:53;;;;;;;;;;;20.70;56.40;;;;;;5492916;26;1736;-89
2024/05/08 02:18:19;;;;;;;;;;;20.70;56.40;;;;;;5492957;26;1049;-89
2024/05/08 02:20:44;;;;;;;;;;;20.70;56.40;;;;;;5461027;26;1272;-89
2024/05/08 02:23:09;;;;;;;;;;;20.70;56.40;;;;;;5492832;26;1698;-89
2024/05/08 02:25:36;;;;;;;;;;;20.70;56.40;;;;;;5460921;26;1652;-89
2024/05/08 02:28:01;;;;;;;;;;;20.70;56.40;;;;;;5460982;26;1257;-89
2024/05/08 02:30:27;;;;;;;;;;;20.70;56.30;;;;;;5493008;26;1855;-89
2024/05/08 02:32:52;;;;;;;;;;;20.70;56.40;;;;;;5493575;26;879;-90
2024/05/08 02:35:17;;;;;;;;;;;20.60;56.80;;;;;;5464035;26;1561;-89
2024/05/08 02:37:43;;;;;;;;;;;20.70;56.30;;;;;;5463871;26;1557;-89
2024/05/08 02:40:08;;;;;;;;;;;20.70;56.30;;;;;;5496398;26;1073;-89
2024/05/08 02:42:33;;;;;;;;;;;20.70;56.20;;;;;;5496313;26;1034;-89
2024/05/08 02:44:59;;;;;;;;;;;20.70;56.20;;;;;;5496398;26;1076;-89
2024/05/08 02:47:24;;;;;;;;;;;20.70;56.20;;;;;;5496372;26;1678;-89
2024/05/08 02:49:49;;;;;;;;;;;20.70;56.20;;;;;;5496622;26;1818;-89
2024/05/08 02:52:15;;;;;;;;;;;20.70;56.20;;;;;;5495781;26;1620;-90
2024/05/08 02:54:40;;;;;;;;;;;20.60;56.10;;;;;;5496385;26;1204;-89
2024/05/08 02:57:06;;;;;;;;;;;20.60;56.10;;;;;;5495901;26;1612;-89
2024/05/08 02:59:31;;;;;;;;;;;20.70;56.10;;;;;;5495883;26;1025;-89
2024/05/08 03:04:26;;;;;;;;;;;20.70;56.10;;;;;;5455261;26;1251;-89
2024/05/08 03:06:51;;;;;;;;;;;20.60;55.90;;;;;;5459840;26;897;-89
2024/05/08 03:09:16;;;;;;;;;;;20.60;56.00;;;;;;5428734;26;1837;-89
2024/05/08 03:11:42;;;;;;;;;;;20.60;55.90;;;;;;5460094;26;882;-89
2024/05/08 03:14:08;;;;;;;;;;;20.60;56.00;;;;;;5428076;26;1422;-89
2024/05/08 03:16:33;;;;;;;;;;;20.60;55.90;;;;;;5459457;26;1017;-90
2024/05/08 03:18:59;;;;;;;;;;;20.60;55.90;;;;;;5428511;26;1438;-89
2024/05/08 03:21:24;;;;;;;;;;;20.60;55.90;;;;;;5460350;26;1029;-89
2024/05/08 03:23:49;;;;;;;;;;;20.60;55.80;;;;;;5459774;26;1057;-89
2024/05/08 03:26:15;;;;;;;;;;;20.60;55.80;;;;;;5427876;26;1241;-89
2024/05/08 03:28:41;;;;;;;;;;;20.60;55.90;;;;;;5459897;26;1835;-90
2024/05/08 03:31:06;;;;;;;;;;;20.60;55.90;;;;;;5428112;26;1408;-89
2024/05/08 03:33:32;;;;;;;;;;;20.60;55.90;;;;;;5428718;26;1188;-89
2024/05/08 03:35:57;;;;;;;;;;;20.60;55.80;;;;;;5459749;26;887;-89
2024/05/08 03:38:22;;;;;;;;;;;20.60;55.80;;;;;;5459696;26;1021;-89
2024/05/08 03:40:48;;;;;;;;;;;20.60;55.60;;;;;;5459643;26;1030;-89
2024/05/08 03:43:13;;;;;;;;;;;20.60;55.80;;;;;;5459960;26;906;-89
2024/05/08 03:45:38;;;;;;;;;;;20.60;55.70;;;;;;5426817;26;1241;-90
2024/05/08 03:48:04;;;;;;;;;;;20.60;55.70;;;;;;5459459;26;1037;-90
2024/05/08 03:50:29;;;;;;;;;;;20.60;55.70;;;;;;5458948;26;1833;-89
2024/05/08 03:52:55;;;;;;;;;;;20.50;55.70;;;;;;5428485;26;1275;-89
2024/05/08 03:55:20;;;;;;;;;;;20.60;55.70;;;;;;5459068;26;871;-89
2024/05/08 03:57:46;;;;;;;;;;;20.60;55.70;;;;;;5427923;26;1283;-89
2024/05/08 04:00:11;;;;;;;;;;;20.60;55.70;;;;;;5428022;26;1396;-89
2024/05/08 04:02:36;;;;;;;;;;;20.50;55.50;;;;;;5459529;26;1076;-89
2024/05/08 04:05:02;;;;;;;;;;;20.60;55.60;;;;;;5459528;26;994;-89
2024/05/08 04:07:27;;;;;;;;;;;20.60;55.60;;;;;;5459709;26;934;-89
2024/05/08 04:09:52;;;;;;;;;;;20.50;55.50;;;;;;5459270;26;1841;-89
2024/05/08 04:12:18;;;;;;;;;;;20.60;55.50;;;;;;5459068;26;981;-89
2024/05/08 04:14:43;;;;;;;;;;;20.60;55.50;;;;;;5427407;26;1293;-89
2024/05/08 04:17:08;;;;;;;;;;;20.60;55.60;;;;;;5459011;26;1042;-89
2024/05/08 04:19:34;;;;;;;;;;;20.60;55.40;;;;;;5459474;26;1139;-89
2024/05/08 04:21:59;;;;;;;;;;;20.60;55.40;;;;;;5458665;26;1017;-89
2024/05/08 04:24:25;;;;;;;;;;;20.60;55.40;;;;;;5458770;26;1030;-89
2024/05/08 04:26:50;;;;;;;;;;;20.60;55.50;;;;;;5459181;26;898;-90
2024/05/08 04:29:15;;;;;;;;;;;20.60;55.40;;;;;;5427984;26;1809;-89
2024/05/08 04:31:41;;;;;;;;;;;20.60;55.50;;;;;;5459255;26;899;-89
2024/05/08 04:34:06;;;;;;;;;;;20.60;55.50;;;;;;5458725;26;1010;-89
2024/05/08 04:36:31;;;;;;;;;;;20.60;55.60;;;;;;5427137;26;1217;-89
2024/05/08 04:39:01;;;;;;;;;;;20.60;55.50;;;;;;5458637;26;926;-88
2024/05/08 04:41:26;;;;;;;;;;;20.60;55.60;;;;;;5428250;26;1393;-90
2024/05/08 04:43:51;;;;;;;;;;;20.60;55.60;;;;;;5460039;26;1077;-91
2024/05/08 04:46:17;;;;;;;;;;;20.60;56.10;;;;;;5460144;26;918;-91
2024/05/08 04:48:42;;;;;;;;;;;20.60;56.30;;;;;;5458551;26;1840;-89
2024/05/08 04:51:07;;;;;;;;;;;20.60;56.20;;;;;;5459215;26;1009;-89
2024/05/08 04:53:33;;;;;;;;;;;20.60;56.00;;;;;;5459439;26;923;-90
2024/05/08 04:55:58;;;;;;;;;;;20.60;55.90;;;;;;5458618;26;1089;-90
2024/05/08 04:58:24;;;;;;;;;;;20.60;57.10;;;;;;5459664;26;922;-89
2024/05/08 05:00:49;;;;;;;;;;;20.60;59.40;;;;;;5459647;26;1042;-92
2024/05/08 05:03:17;;;;;;;;;;;20.60;59.80;;;;;;5430097;26;1257;-93
2024/05/08 05:05:42;;;;;;;;;;;20.60;59.50;;;;;;5358287;26;1218;-93
2024/05/08 05:08:08;;;;;;;;;;;20.60;59.00;;;;;;5360654;26;1300;-96
2024/05/08 05:10:39;;;;;;;;;;;20.60;58.70;;;;;;5375007;26;1805;-96
2024/05/08 05:13:04;;;;;;;;;;;20.70;58.80;;;;;;5403909;26;1021;-96
2024/05/08 05:15:36;;;;;;;;;;;20.60;59.00;;;;;;5373773;26;1115;-96
2024/05/08 05:18:04;;;;;;;;;;;20.70;58.70;;;;;;5377418;26;1207;-96
2024/05/08 05:20:29;;;;;;;;;;;20.60;58.60;;;;;;5392018;21;3772;-80
2024/05/08 05:22:55;;;;;;;;;;;20.70;58.60;;;;;;5384539;26;1093;-79
2024/05/08 05:25:20;;;;;;;;;;;20.70;58.60;;;;;;5384768;26;929;-79
2024/05/08 05:27:46;;;;;;;;;;;20.70;58.60;;;;;;5384590;26;970;-80
2024/05/08 05:30:11;;;;;;;;;;;20.70;58.50;;;;;;5385540;26;1842;-79
2024/05/08 05:35:21;;;;;;;;;;;20.70;58.40;;;;;;5421680;26;643;-80
2024/05/08 05:37:46;;;;;;;;;;;20.70;58.40;;;;;;5420215;26;1069;-80
2024/05/08 05:40:12;;;;;;;;;;;20.70;58.30;;;;;;5419766;26;901;-80
2024/05/08 05:48:05;;;;;;;;;;;20.70;58.20;;;;;;5421244;26;733;-80
2024/05/08 05:50:30;;;;;;;;;;;20.70;58.10;;;;;;5419897;26;1810;-82
2024/05/08 05:52:56;;;;;;;;;;;20.70;58.10;;;;;;5420533;26;872;-85
2024/05/08 05:55:22;;;;;;;;;;;20.70;58.00;;;;;;5389641;26;1238;-85
2024/05/08 05:57:48;;;;;;;;;;;20.70;58.00;;;;;;5420527;26;974;-84
2024/05/08 06:00:13;;;;;;;;;;;20.70;57.90;;;;;;5420161;26;1055;-84
2024/05/08 06:02:39;;;;;;;;;;;20.70;57.60;;;;;;5420338;26;922;-82
2024/05/08 06:05:04;;;;;;;;;;;20.70;57.70;;;;;;5419896;26;1027;-84
2024/05/08 06:07:29;;;;;;;;;;;20.70;57.60;;;;;;5418930;26;942;-81
2024/05/08 06:09:55;;;;;;;;;;;20.70;57.40;;;;;;5420080;26;1810;-82
2024/05/08 06:12:20;;;;;;;;;;;20.70;57.50;;;;;;5420635;26;864;-82
2024/05/08 06:14:45;;;;;;;;;;;20.70;57.50;;;;;;5420562;26;974;-83
2024/05/08 06:17:11;;;;;;;;;;;20.70;57.50;;;;;;5419972;26;1066;-83
2024/05/08 06:19:36;;;;;;;;;;;20.70;57.50;;;;;;5419926;26;1108;-82
2024/05/08 06:22:01;;;;;;;;;;;20.70;57.50;;;;;;5419776;26;1006;-84
2024/05/08 06:24:27;;;;;;;;;;;20.70;57.40;;;;;;5419188;26;998;-83
2024/05/08 06:26:52;;;;;;;;;;;20.70;57.30;;;;;;5419448;26;877;-83
2024/05/08 06:29:17;;;;;;;;;;;20.70;57.20;;;;;;5419426;26;1809;-83
2024/05/08 06:31:43;;;;;;;;;;;20.70;57.10;;;;;;5420031;26;1235;-84
2024/05/08 06:34:08;;;;;;;;;;;20.70;57.10;;;;;;5420275;26;909;-82
2024/05/08 06:36:34;;;;;;;;;;;20.70;57.10;;;;;;5419710;26;868;-80
2024/05/08 06:38:59;;;;;;;;;;;20.70;57.10;;;;;;5418686;26;914;-82
2024/05/08 06:41:25;;;;;;;;;;;20.70;57.00;;;;;;5418622;26;932;-82
2024/05/08 06:43:50;;;;;;;;;;;20.70;57.10;;;;;;5418675;26;905;-84
2024/05/08 06:46:15;;;;;;;;;;;20.70;56.90;;;;;;5418554;26;851;-82
2024/05/08 06:48:41;;;;;;;;;;;20.70;57.00;;;;;;5418530;26;1460;-83
2024/05/08 06:51:06;;;;;;;;;;;20.70;57.10;;;;;;5418517;26;903;-82
2024/05/08 06:53:31;;;;;;;;;;;20.70;56.90;;;;;;5419008;26;938;-82
2024/05/08 06:55:57;;;;;;;;;;;20.70;57.00;;;;;;5418589;26;1069;-81
2024/05/08 06:58:22;;;;;;;;;;;20.70;56.90;;;;;;5418799;26;938;-82
2024/05/08 07:00:48;;;;;;;;;;;20.70;56.90;;;;;;5418462;26;915;-82
2024/05/08 07:03:13;;;;;;;;;;;20.70;56.80;;;;;;5418335;26;1106;-82
2024/05/08 07:05:38;;;;;;;;;;;20.70;56.80;;;;;;5418505;26;881;-81
2024/05/08 07:08:05;;;;;;;;;;;20.70;56.70;;;;;;5418176;26;1018;-82
2024/05/08 07:10:31;;;;;;;;;;;20.70;56.80;;;;;;5418057;26;1798;-81
2024/05/08 07:12:56;;;;;;;;;;;20.70;56.70;;;;;;5418190;26;970;-82
2024/05/08 07:15:22;;;;;;;;;;;20.70;56.60;;;;;;5418577;26;859;-81
2024/05/08 07:17:47;;;;;;;;;;;20.70;56.60;;;;;;5418128;26;852;-81
2024/05/08 07:20:12;;;;;;;;;;;20.70;56.60;;;;;;5420342;26;1290;-81
2024/05/08 07:22:38;;;;;;;;;;;20.70;56.60;;;;;;5421754;26;1007;-81
2024/05/08 07:25:03;;;;;;;;;;;20.70;56.60;;;;;;5421549;26;891;-81
2024/05/08 07:27:28;;;;;;;;;;;20.70;56.50;;;;;;5421690;26;860;-81
2024/05/08 07:29:54;;;;;;;;;;;20.70;56.50;;;;;;5422004;26;1853;-81
2024/05/08 07:32:19;;;;;;;;;;;20.60;56.30;;;;;;5421279;26;1321;-80
2024/05/08 07:34:45;;;;;;;;;;;20.60;56.30;;;;;;5421558;26;923;-81
2024/05/08 07:37:10;;;;;;;;;;;20.60;56.30;;;;;;5421709;26;935;-81
2024/05/08 07:39:35;;;;;;;;;;;20.60;56.20;;;;;;5421634;26;846;-82
2024/05/08 07:42:01;;;;;;;;;;;20.60;56.20;;;;;;5421784;26;923;-81
2024/05/08 07:44:26;;;;;;;;;;;20.70;56.30;;;;;;5421640;26;1071;-81
2024/05/08 07:46:51;;;;;;;;;;;20.70;56.30;;;;;;5421596;26;931;-84
2024/05/08 07:49:17;;;;;;;;;;;20.70;56.20;;;;;;5421297;26;1806;-83
2024/05/08 07:51:42;;;;;;;;;;;20.60;56.10;;;;;;5421469;26;986;-83
2024/05/08 07:54:08;;;;;;;;;;;20.70;56.20;;;;;;5421705;26;1074;-84
2024/05/08 07:56:33;;;;;;;;;;;20.70;56.20;;;;;;5421703;26;891;-84
2024/05/08 07:58:58;;;;;;;;;;;20.70;56.30;;;;;;5421313;26;1089;-83
2024/05/08 08:01:24;;;;;;;;;;;20.70;56.30;;;;;;5421315;26;941;-83
2024/05/08 08:03:49;;;;;;;;;;;20.70;56.30;;;;;;5421194;26;914;-84
2024/05/08 08:06:15;;;;;;;;;;;20.70;56.20;;;;;;5421494;26;858;-84
2024/05/08 08:08:40;;;;;;;;;;;20.70;56.20;;;;;;5421590;26;932;-83
2024/05/08 08:11:05;;;;;;;;;;;20.70;56.20;;;;;;5421563;26;1802;-84
2024/05/08 08:13:31;;;;;;;;;;;20.70;56.20;;;;;;5421519;26;883;-84
2024/05/08 08:15:56;;;;;;;;;;;20.70;56.10;;;;;;5421264;26;966;-84
2024/05/08 08:18:21;;;;;;;;;;;20.70;56.10;;;;;;5389656;26;1253;-83
2024/05/08 08:20:47;;;;;;;;;;;20.70;56.10;;;;;;5421021;26;1182;-83
2024/05/08 08:23:12;;;;;;;;;;;20.70;56.10;;;;;;5421430;26;925;-83
2024/05/08 08:25:38;;;;;;;;;;;20.70;56.30;;;;;;5421392;26;904;-83
2024/05/08 08:28:04;;;;;;;;;;;20.70;56.20;;;;;;5421298;26;844;-83
2024/05/08 08:30:29;;;;;;;;;;;20.70;56.20;;;;;;5420230;26;1869;-83
2024/05/08 08:32:54;;;;;;;;;;;20.70;56.20;;;;;;5421103;26;1043;-84
2024/05/08 08:35:20;;;;;;;;;;;20.70;56.20;;;;;;5421146;26;883;-83
2024/05/08 08:37:45;;;;;;;;;;;20.70;56.20;;;;;;5421596;26;963;-83
2024/05/08 08:40:10;;;;;;;;;;;20.70;56.20;;;;;;5421068;26;854;-83
2024/05/08 08:42:36;;;;;;;;;;;20.70;56.10;;;;;;5421056;26;1002;-83
2024/05/08 08:45:01;;;;;;;;;;;20.70;56.10;;;;;;5420812;26;1042;-83
2024/05/08 08:47:27;;;;;;;;;;;20.70;56.00;;;;;;5420861;26;916;-82
2024/05/08 08:49:52;;;;;;;;;;;20.70;55.90;;;;;;5420523;26;1806;-83
2024/05/08 08:52:18;;;;;;;;;;;20.70;56.00;;;;;;5389435;26;1403;-82
2024/05/08 08:54:43;;;;;;;;;;;20.80;55.90;;;;;;5420999;26;872;-83
2024/05/08 08:57:10;;;;;;;;;;;20.70;55.80;;;;;;5420756;26;1038;-82
2024/05/08 08:59:35;;;;;;;;;;;20.70;55.80;;;;;;5420753;26;856;-83
2024/05/08 09:02:00;;;;;;;;;;;20.70;55.80;;;;;;5420810;26;1018;-82
2024/05/08 09:04:26;;;;;;;;;;;20.70;55.70;;;;;;5420790;26;930;-82
2024/05/08 09:06:51;;;;;;;;;;;20.70;55.70;;;;;;5420649;26;868;-82
2024/05/08 09:09:16;;;;;;;;;;;20.70;55.80;;;;;;5420915;26;1794;-82
2024/05/08 09:11:42;;;;;;;;;;;20.70;55.80;;;;;;5420935;26;910;-82
2024/05/08 09:14:07;;;;;;;;;;;20.70;55.80;;;;;;5420552;26;1010;-83
2024/05/08 09:16:33;;;;;;;;;;;20.70;55.70;;;;;;5420504;26;915;-82
2024/05/08 09:18:58;;;;;;;;;;;20.70;55.60;;;;;;5420613;26;1140;-82
2024/05/08 09:21:23;;;;;;;;;;;20.70;55.60;;;;;;5420493;26;940;-82
2024/05/08 09:23:49;;;;;;;;;;;20.70;55.70;;;;;;5420483;26;991;-82
2024/05/08 09:26:14;;;;;;;;;;;20.70;55.60;;;;;;5420570;26;883;-82
2024/05/08 09:28:39;;;;;;;;;;;20.70;55.60;;;;;;5420477;26;939;-82
2024/05/08 09:31:05;;;;;;;;;;;20.70;55.60;;;;;;5420201;26;1847;-83
2024/05/08 09:33:30;;;;;;;;;;;20.80;55.60;;;;;;5420338;26;978;-82
2024/05/08 09:35:55;;;;;;;;;;;20.70;55.60;;;;;;5388896;26;1191;-83
2024/05/08 09:38:21;;;;;;;;;;;20.80;55.60;;;;;;5420104;26;843;-83
2024/05/08 09:40:46;;;;;;;;;;;20.70;55.50;;;;;;5420176;26;943;-82
2024/05/08 09:43:13;;;;;;;;;;;20.80;55.50;;;;;;5418831;26;1066;-82
2024/05/08 09:45:38;;;;;;;;;;;20.70;55.40;;;;;;5420209;26;913;-82
2024/05/08 09:48:03;;;;;;;;;;;20.70;55.50;;;;;;5420001;26;887;-82
2024/05/08 09:50:29;;;;;;;;;;;20.70;55.30;;;;;;5419782;26;1855;-82
2024/05/08 09:52:54;;;;;;;;;;;20.70;55.40;;;;;;5420193;26;917;-83
2024/05/08 09:55:19;;;;;;;;;;;20.70;55.30;;;;;;5419823;26;868;-84
2024/05/08 09:57:45;;;;;;;;;;;20.80;55.40;;;;;;5419588;26;856;-83
2024/05/08 10:00:10;;;;;;;;;;;20.70;55.30;;;;;;5419657;26;853;-84
2024/05/08 10:02:36;;;;;;;;;;;20.80;55.60;;;;;;5388166;26;1234;-83
2024/05/08 10:05:01;;;;;;;;;;;20.70;55.60;;;;;;5420384;26;925;-83
2024/05/08 10:07:27;;;;;;;;;;;20.70;55.50;;;;;;5420347;26;929;-84
2024/05/08 10:09:54;;;;;;;;;;;20.70;55.60;;;;;;5419843;26;1904;-84
2024/05/08 10:12:19;;;;;;;;;;;20.70;55.60;;;;;;5419865;26;931;-83
2024/05/08 10:14:44;;;;;;;;;;;20.70;55.60;;;;;;5420040;26;911;-84
2024/05/08 10:17:10;;;;;;;;;;;20.70;55.60;;;;;;5419687;26;1089;-83
2024/05/08 10:19:35;;;;;;;;;;;20.70;55.60;;;;;;5420060;26;1115;-83
2024/05/08 10:22:01;;;;;;;;;;;20.80;55.80;;;;;;5419575;26;1075;-83
2024/05/08 10:24:26;;;;;;;;;;;20.80;55.80;;;;;;5419671;26;863;-83
2024/05/08 10:26:51;;;;;;;;;;;20.80;55.80;;;;;;5419076;26;939;-83
2024/05/08 10:29:17;;;;;;;;;;;20.70;55.70;;;;;;5418995;26;1854;-84
2024/05/08 10:31:42;;;;;;;;;;;20.80;55.80;;;;;;5418881;26;1185;-83
2024/05/08 10:34:07;;;;;;;;;;;20.80;55.80;;;;;;5418878;26;964;-83
2024/05/08 10:36:33;;;;;;;;;;;20.80;55.70;;;;;;5419450;26;876;-83
2024/05/08 10:38:58;;;;;;;;;;;20.80;55.80;;;;;;5418865;26;891;-83
2024/05/08 10:41:24;;;;;;;;;;;20.80;55.80;;;;;;5387679;26;1334;-85
2024/05/08 10:43:49;;;;;;;;;;;20.80;55.70;;;;;;5419469;26;906;-85
2024/05/08 10:46:14;;;;;;;;;;;20.80;55.80;;;;;;5419271;26;982;-85
2024/05/08 10:48:40;;;;;;;;;;;20.80;55.70;;;;;;5418823;26;872;-84
2024/05/08 10:51:05;;;;;;;;;;;20.80;55.60;;;;;;5419215;26;1831;-84
2024/05/08 10:53:31;;;;;;;;;;;20.80;55.60;;;;;;5418963;26;924;-84
2024/05/08 10:55:56;;;;;;;;;;;20.80;55.60;;;;;;5422307;26;978;-82
2024/05/08 10:58:21;;;;;;;;;;;20.80;55.60;;;;;;5421706;26;929;-81
2024/05/08 11:00:47;;;;;;;;;;;20.80;55.60;;;;;;5422115;26;915;-81
2024/05/08 11:03:12;;;;;;;;;;;20.80;55.60;;;;;;5422106;26;938;-82
2024/05/08 11:05:37;;;;;;;;;;;20.80;56.30;;;;;;5422188;26;856;-82
2024/05/08 11:08:03;;;;;;;;;;;20.80;55.60;;;;;;5421995;26;867;-82
2024/05/08 11:10:28;;;;;;;;;;;20.80;55.60;;;;;;5422146;26;1798;-82
2024/05/08 11:12:54;;;;;;;;;;;20.90;55.60;;;;;;5390542;26;1185;-82
2024/05/08 11:15:19;;;;;;;;;;;20.80;55.50;;;;;;5421967;26;844;-82
2024/05/08 11:17:45;;;;;;;;;;;20.80;55.40;;;;;;5422585;26;1002;-87
2024/05/08 11:20:10;;;;;;;;;;;20.80;56.00;;;;;;5421929;26;1242;-81
2024/05/08 11:22:41;;;;;;;;;;;20.80;56.30;;;;;;5422180;26;920;-82
2024/05/08 11:25:07;;;;;;;;;;;20.80;56.10;;;;;;5421847;26;926;-83
2024/05/08 11:27:35;;;;;;;;;;;20.80;55.90;;;;;;5421893;26;852;-82
2024/05/08 11:30:00;;;;;;;;;;;20.80;55.70;;;;;;5421687;26;1818;-83
2024/05/08 11:32:26;;;;;;;;;;;20.80;55.70;;;;;;5421738;26;1156;-83
2024/05/08 11:34:51;;;;;;;;;;;20.90;55.90;;;;;;5421827;26;855;-83
2024/05/08 11:37:17;;;;;;;;;;;20.80;55.90;;;;;;5421798;26;860;-81
2024/05/08 11:39:42;;;;;;;;;;;20.80;55.70;;;;;;5421986;26;967;-81
2024/05/08 11:42:07;;;;;;;;;;;20.80;55.70;;;;;;5421985;26;1047;-81
2024/05/08 11:44:33;;;;;;;;;;;20.80;55.80;;;;;;5421514;26;1078;-81
2024/05/08 11:46:58;;;;;;;;;;;20.90;55.90;;;;;;5421098;26;963;-81
2024/05/08 11:49:24;;;;;;;;;;;20.80;55.80;;;;;;5421202;26;1817;-80
2024/05/08 11:51:49;;;;;;;;;;;20.80;55.80;;;;;;5421113;26;921;-80
2024/05/08 11:54:15;;;;;;;;;;;20.80;55.50;;;;;;5389781;26;1229;-80
2024/05/08 11:56:40;;;;;;;;;;;20.80;55.60;;;;;;5421432;26;922;-80
2024/05/08 11:59:06;;;;;;;;;;;20.80;55.40;;;;;;5389760;26;1186;-80
2024/05/08 12:01:31;;;;;;;;;;;20.80;55.30;;;;;;5420937;26;905;-80
2024/05/08 12:03:57;;;;;;;;;;;20.80;55.30;;;;;;5420987;26;1142;-80
2024/05/08 12:06:23;;;;;;;;;;;20.80;55.30;;;;;;5419831;26;924;-80
2024/05/08 12:08:48;;;;;;;;;;;20.90;55.50;;;;;;5389444;26;1833;-80
2024/05/08 12:11:14;;;;;;;;;;;20.80;55.00;;;;;;5389491;26;1170;-81
2024/05/08 12:13:39;;;;;;;;;;;20.80;55.00;;;;;;5420759;26;911;-79
2024/05/08 12:16:04;;;;;;;;;;;20.80;55.10;;;;;;5420942;26;995;-80
2024/05/08 12:18:30;;;;;;;;;;;20.80;55.20;;;;;;5420901;26;832;-79
2024/05/08 12:20:55;;;;;;;;;;;20.80;55.00;;;;;;5420824;26;1286;-80
2024/05/08 12:23:21;;;;;;;;;;;20.90;55.10;;;;;;5420743;26;832;-80
2024/05/08 12:25:46;;;;;;;;;;;20.80;55.00;;;;;;5420767;26;951;-80
2024/05/08 12:28:11;;;;;;;;;;;20.80;55.00;;;;;;5420809;26;1255;-80
2024/05/08 12:30:37;;;;;;;;;;;20.80;55.10;;;;;;5420896;26;1848;-79
2024/05/08 12:33:03;;;;;;;;;;;20.80;55.00;;;;;;5421111;26;859;-80
2024/05/08 12:35:28;;;;;;;;;;;20.80;54.90;;;;;;5420659;26;943;-79
2024/05/08 12:37:53;;;;;;;;;;;20.80;54.90;;;;;;5420584;26;1039;-80
2024/05/08 12:40:19;;;;;;;;;;;20.80;55.00;;;;;;5420515;26;881;-79
2024/05/08 12:42:44;;;;;;;;;;;20.80;54.70;;;;;;5420701;26;983;-79
2024/05/08 12:45:09;;;;;;;;;;;20.80;54.70;;;;;;5420488;26;891;-79
2024/05/08 12:47:35;;;;;;;;;;;20.80;54.70;;;;;;5420559;26;940;-80
2024/05/08 12:50:00;;;;;;;;;;;20.80;54.60;;;;;;5420519;26;1862;-79
2024/05/08 12:52:25;;;;;;;;;;;20.80;54.60;;;;;;5420495;26;911;-80
2024/05/08 12:54:51;;;;;;;;;;;20.80;54.60;;;;;;5420698;26;943;-82
2024/05/08 12:57:16;;;;;;;;;;;20.80;54.60;;;;;;5420858;26;872;-82
2024/05/08 12:59:42;;;;;;;;;;;20.80;54.50;;;;;;5420159;26;975;-82
2024/05/08 13:02:07;;;;;;;;;;;20.80;54.80;;;;;;5420764;26;899;-82
2024/05/08 13:04:32;;;;;;;;;;;20.80;55.00;;;;;;5420598;26;912;-82
2024/05/08 13:06:58;;;;;;;;;;;20.80;55.10;;;;;;5420404;26;1003;-82
2024/05/08 13:09:23;;;;;;;;;;;20.80;55.10;;;;;;5420359;26;1809;-81
2024/05/08 13:11:48;;;;;;;;;;;20.80;55.10;;;;;;5420516;26;940;-82
2024/05/08 13:14:14;;;;;;;;;;;20.80;55.10;;;;;;5420371;26;1067;-82
2024/05/08 13:16:39;;;;;;;;;;;20.80;54.90;;;;;;5420045;26;880;-82
2024/05/08 13:19:04;;;;;;;;;;;20.80;55.20;;;;;;5420287;26;1234;-81
2024/05/08 13:21:30;;;;;;;;;;;20.80;55.20;;;;;;5420559;26;1114;-82
2024/05/08 13:23:55;;;;;;;;;;;20.80;55.10;;;;;;5389270;26;1307;-82
2024/05/08 13:26:21;;;;;;;;;;;20.80;55.20;;;;;;5420468;26;1182;-82
2024/05/08 13:28:46;;;;;;;;;;;20.80;55.20;;;;;;5420051;26;959;-80
2024/05/08 13:31:12;;;;;;;;;;;20.80;55.20;;;;;;5419795;26;1903;-80
2024/05/08 13:33:37;;;;;;;;;;;20.80;55.10;;;;;;5420307;26;832;-80
2024/05/08 13:36:02;;;;;;;;;;;20.80;55.00;;;;;;5420002;26;844;-80
2024/05/08 13:38:28;;;;;;;;;;;20.80;54.80;;;;;;5419981;26;832;-79
2024/05/08 13:40:54;;;;;;;;;;;20.80;55.00;;;;;;5388517;26;1323;-80
2024/05/08 13:43:19;;;;;;;;;;;20.80;54.90;;;;;;5420201;26;993;-80
2024/05/08 13:45:44;;;;;;;;;;;20.80;54.80;;;;;;5419755;26;1071;-80
2024/05/08 13:48:10;;;;;;;;;;;20.80;54.80;;;;;;5420096;26;840;-80
2024/05/08 13:50:36;;;;;;;;;;;20.80;54.80;;;;;;5420275;26;1817;-80
2024/05/08 13:53:02;;;;;;;;;;;20.80;54.70;;;;;;5420065;26;832;-81
2024/05/08 13:55:27;;;;;;;;;;;20.80;54.70;;;;;;5419916;26;852;-80
2024/05/08 13:57:53;;;;;;;;;;;20.80;54.80;;;;;;5388489;26;1220;-81
2024/05/08 14:00:19;;;;;;;;;;;20.80;54.80;;;;;;5419674;26;915;-81
2024/05/08 14:02:44;;;;;;;;;;;20.80;54.80;;;;;;5419993;26;855;-81
2024/05/08 14:05:10;;;;;;;;;;;20.80;54.80;;;;;;5419918;26;1019;-81
2024/05/08 14:07:35;;;;;;;;;;;20.80;54.80;;;;;;5419875;26;879;-81
2024/05/08 14:10:01;;;;;;;;;;;20.80;54.80;;;;;;5420123;26;1840;-80
2024/05/08 14:12:26;;;;;;;;;;;20.80;54.70;;;;;;5420033;26;892;-81
2024/05/08 14:14:51;;;;;;;;;;;20.80;54.80;;;;;;5419807;26;987;-80
2024/05/08 14:17:19;;;;;;;;;;;20.80;54.90;;;;;;5420052;26;1090;-81
2024/05/08 14:19:45;;;;;;;;;;;20.80;54.80;;;;;;5420149;26;1138;-81
2024/05/08 14:22:10;;;;;;;;;;;20.80;54.70;;;;;;5419995;26;1101;-81
2024/05/08 14:24:35;;;;;;;;;;;20.80;54.70;;;;;;5420276;26;867;-81
2024/05/08 14:27:01;;;;;;;;;;;20.80;54.90;;;;;;5419983;26;848;-81
2024/05/08 14:29:26;;;;;;;;;;;20.80;54.90;;;;;;5418873;26;1855;-81
2024/05/08 14:31:51;;;;;;;;;;;20.80;55.40;;;;;;5420016;26;1186;-81
2024/05/08 14:34:17;;;;;;;;;;;20.80;54.80;;;;;;5419843;26;1074;-81